Terminal Aerodrome Forecast
Issued by NWS

Home | Current Version | Previous Version | Text Only | Print | Product List | Glossary On
Versions: 1 2 3 4 5 6 7 8 9 10 11 12 13 14 15 16 17 18 19 20 21 22 23 24 25 26 27 28 29 30 31 32 33 34 35 36 37
000
FTUS46 KEKA 250528
TAFACV
TAF
KACV 250528Z 2506/2606 18006KT P6SM OVC005
     FM250900 18003KT 2SM BR OVC004
     FM251200 VRB03KT 1SM BR OVC002
     FM252000 29005KT P6SM SCT007 SCT012
     FM260200 19008KT 6SM BR OVC005=

USA.gov is the U.S. government's official web portal to all federal, state and local government web resources and services.